Time;durP1;ratioP1;P1;durP2;ratioP2;P2;SDS_P1;SDS_P2;PMS_P1;PMS_P2;Temp;Humidity;BMP_temperature;BMP_pressure;BME280_temperature;BME280_humidity;BME280_pressure;Samples;Min_cycle;Max_cycle;Signal;HPM_P1;HPM_P2
2022/01/19 00:00:15;;;;;;;5.1;4.1;;;;;;;;;;;;;
2022/01/19 00:02:40;;;;;;;7.6;5.6;;;;;;;;;;;;;
2022/01/19 00:05:07;;;;;;;5.8;4.3;;;;;;;;;;;;;
2022/01/19 00:07:34;;;;;;;5.2;3.9;;;;;;;;;;;;;
2022/01/19 00:10:04;;;;;;;5.6;4;;;;;;;;;;;;;
2022/01/19 00:12:28;;;;;;;4.6;3.4;;;;;;;;;;;;;
2022/01/19 00:14:53;;;;;;;8.8;5.7;;;;;;;;;;;;;
2022/01/19 00:17:21;;;;;;;6.6;5.2;;;;;;;;;;;;;
2022/01/19 00:19:56;;;;;;;6.6;4.9;;;;;;;;;;;;;
2022/01/19 00:22:21;;;;;;;6.6;4.6;;;;;;;;;;;;;
2022/01/19 00:24:49;;;;;;;5.6;4.4;;;;;;;;;;;;;
2022/01/19 00:27:14;;;;;;;6.2;4.2;;;;;;;;;;;;;
2022/01/19 00:29:39;;;;;;;6.3;3.8;;;;;;;;;;;;;
2022/01/19 00:32:04;;;;;;;4.2;3.4;;;;;;;;;;;;;
2022/01/19 00:34:31;;;;;;;5.6;3.9;;;;;;;;;;;;;
2022/01/19 00:36:56;;;;;;;7.1;4.8;;;;;;;;;;;;;
2022/01/19 00:39:24;;;;;;;7.6;5.3;;;;;;;;;;;;;
2022/01/19 00:41:48;;;;;;;9.1;6.3;;;;;;;;;;;;;
2022/01/19 00:44:13;;;;;;;8.6;6.2;;;;;;;;;;;;;
2022/01/19 00:46:38;;;;;;;10.8;7.2;;;;;;;;;;;;;
2022/01/19 00:49:04;;;;;;;9.3;6.8;;;;;;;;;;;;;
2022/01/19 00:51:29;;;;;;;10.7;7.6;;;;;;;;;;;;;
2022/01/19 00:53:55;;;;;;;10.4;6.8;;;;;;;;;;;;;
2022/01/19 00:56:21;;;;;;;8.7;6.1;;;;;;;;;;;;;
2022/01/19 00:58:47;;;;;;;10.4;6.5;;;;;;;;;;;;;
2022/01/19 01:01:11;;;;;;;10.1;6.2;;;;;;;;;;;;;
2022/01/19 01:03:37;;;;;;;10.7;6.9;;;;;;;;;;;;;
2022/01/19 01:06:03;;;;;;;13.6;7.8;;;;;;;;;;;;;
2022/01/19 01:08:29;;;;;;;16.4;8.8;;;;;;;;;;;;;
2022/01/19 01:10:54;;;;;;;13.8;7.1;;;;;;;;;;;;;
2022/01/19 01:15:23;;;;;;;10.8;6;;;;;;;;;;;;;
2022/01/19 01:16:01;;;;;;;7.2;4.6;;;;;;;;;;;;;
2022/01/19 01:18:21;;;;;;;5.5;4.2;;;;;;;;;;;;;
2022/01/19 01:20:40;;;;;;;5.4;4.1;;;;;;;;;;;;;
2022/01/19 01:23:05;;;;;;;6.4;4.4;;;;;;;;;;;;;
2022/01/19 01:25:31;;;;;;;6.5;4.2;;;;;;;;;;;;;
2022/01/19 01:27:57;;;;;;;5.6;4;;;;;;;;;;;;;
2022/01/19 01:30:23;;;;;;;7.8;4.5;;;;;;;;;;;;;
2022/01/19 01:32:48;;;;;;;6;4.3;;;;;;;;;;;;;
2022/01/19 01:35:13;;;;;;;5.4;3.9;;;;;;;;;;;;;
2022/01/19 01:37:38;;;;;;;5.4;4;;;;;;;;;;;;;
2022/01/19 01:40:04;;;;;;;6.5;3.8;;;;;;;;;;;;;
2022/01/19 01:42:29;;;;;;;4.2;3.7;;;;;;;;;;;;;
2022/01/19 01:44:58;;;;;;;4.1;3.3;;;;;;;;;;;;;
2022/01/19 01:47:21;;;;;;;4;3.1;;;;;;;;;;;;;
2022/01/19 01:53:26;;;;;;;5.6;3.6;;;;;;;;;;;;;
2022/01/19 01:54:36;;;;;;;3.8;2.9;;;;;;;;;;;;;
2022/01/19 01:57:01;;;;;;;5.4;3.3;;;;;;;;;;;;;
2022/01/19 01:59:26;;;;;;;5;3.3;;;;;;;;;;;;;
2022/01/19 02:01:51;;;;;;;4.3;3.4;;;;;;;;;;;;;
2022/01/19 02:04:22;;;;;;;6.6;3.5;;;;;;;;;;;;;
2022/01/19 02:06:58;;;;;;;5.9;4;;;;;;;;;;;;;
2022/01/19 02:09:12;;;;;;;6.2;3.9;;;;;;;;;;;;;
2022/01/19 02:16:33;;;;;;;3.5;3;;;;;;;;;;;;;
2022/01/19 02:23:47;;;;;;;3.7;3.2;;;;;;;;;;;;;
2022/01/19 02:26:12;;;;;;;3.5;2.9;;;;;;;;;;;;;
2022/01/19 02:40:38;;;;;;;4.7;3.3;;;;;;;;;;;;;
2022/01/19 02:43:08;;;;;;;5;3.2;;;;;;;;;;;;;
2022/01/19 02:50:17;;;;;;;5.4;3.6;;;;;;;;;;;;;
2022/01/19 02:52:43;;;;;;;4.9;3.6;;;;;;;;;;;;;
2022/01/19 02:55:09;;;;;;;5.3;3.5;;;;;;;;;;;;;
2022/01/19 02:57:36;;;;;;;6.8;3.8;;;;;;;;;;;;;
2022/01/19 03:09:42;;;;;;;7.4;5;;;;;;;;;;;;;
2022/01/19 03:12:09;;;;;;;7.2;4.6;;;;;;;;;;;;;
2022/01/19 03:14:34;;;;;;;6.7;4.4;;;;;;;;;;;;;
2022/01/19 03:17:02;;;;;;;6.5;4.2;;;;;;;;;;;;;
2022/01/19 03:19:29;;;;;;;5.2;3.8;;;;;;;;;;;;;
2022/01/19 03:21:52;;;;;;;4.9;3.7;;;;;;;;;;;;;
2022/01/19 03:24:19;;;;;;;5.5;3.8;;;;;;;;;;;;;
2022/01/19 03:26:44;;;;;;;4.8;3.5;;;;;;;;;;;;;
2022/01/19 03:29:10;;;;;;;5.6;3.7;;;;;;;;;;;;;
2022/01/19 03:31:35;;;;;;;5.7;3.7;;;;;;;;;;;;;
2022/01/19 03:34:00;;;;;;;5.1;3.7;;;;;;;;;;;;;
2022/01/19 03:36:25;;;;;;;5.2;3.9;;;;;;;;;;;;;
2022/01/19 03:38:51;;;;;;;5.7;3.8;;;;;;;;;;;;;
2022/01/19 03:41:16;;;;;;;6.5;4;;;;;;;;;;;;;
2022/01/19 03:43:42;;;;;;;5.5;3.9;;;;;;;;;;;;;
2022/01/19 03:46:13;;;;;;;5.9;3.8;;;;;;;;;;;;;
2022/01/19 03:48:43;;;;;;;7.6;4.7;;;;;;;;;;;;;
2022/01/19 03:50:59;;;;;;;9;4.8;;;;;;;;;;;;;
2022/01/19 03:53:24;;;;;;;8.7;4.8;;;;;;;;;;;;;
2022/01/19 03:55:50;;;;;;;8;4.7;;;;;;;;;;;;;
2022/01/19 03:58:15;;;;;;;7.1;4.4;;;;;;;;;;;;;
2022/01/19 04:02:36;;;;;;;6.3;3.9;;;;;;;-2.02;88.35449;948.7989;;;;
2022/01/19 04:05:05;;;;;;;7;4.1;;;;;;;-1.97;88.01172;948.7452;;;;
2022/01/19 04:07:29;;;;;;;6;3.7;;;;;;;-2.08;88.58691;948.6774;;;;
2022/01/19 04:09:59;;;;;;;5.9;3.7;;;;;;;-2.13;89.19824;948.6769;;;;
2022/01/19 04:12:42;;;;;;;6.9;3.4;;;;;;;-2.09;89.20605;948.6386;;;;
2022/01/19 04:14:53;;;;;;;4.7;3;;;;;;;-2.14;88.76465;948.6375;;;;
2022/01/19 04:17:24;;;;;;;5.3;3.2;;;;;;;-2.32;89.52344;948.6163;;;;
2022/01/19 04:19:49;;;;;;;4.2;2.6;;;;;;;-2.32;89.75684;948.5608;;;;
2022/01/19 04:22:13;;;;;;;4.4;3.1;;;;;;;-2.36;90.19141;948.5197;;;;
2022/01/19 04:24:43;;;;;;;5.1;3.3;;;;;;;-2.43;90.35156;948.535;;;;
2022/01/19 04:29:33;;;;;;;5.4;3.9;;;;;;;-2.3;90.06836;948.502;;;;
2022/01/19 04:31:58;;;;;;;5;4;;;;;;;-2.19;89.39746;948.4833;;;;
2022/01/19 04:34:25;;;;;;;6.8;4.1;;;;;;;-2.24;89.12891;948.5248;;;;
2022/01/19 04:37:23;;;;;;;7.3;5.3;;;;;;;-2.19;88.9082;948.4424;;;;
2022/01/19 04:43:47;;;;;;;6.9;4.1;;;;;;;-2.28;88.90039;948.4292;;;;
2022/01/19 04:44:30;;;;;;;4.8;3.6;;;;;;;-2.35;88.96387;948.3301;;;;
2022/01/19 04:54:33;;;;;;;4.4;3.8;;;;;;;-2.53;90.15332;948.1839;;;;
2022/01/19 05:03:48;;;;;;;5.2;3.8;;;;;;;-2.23;88.21289;948.2784;;;;
2022/01/19 05:06:09;;;;;;;6.9;3.9;;;;;;;-2.14;87.89746;948.312;;;;
2022/01/19 05:09:07;;;;;;;5.9;4.3;;;;;;;-2.02;87.41211;948.2642;;;;
2022/01/19 05:13:34;;;;;;;7.1;5.1;;;;;;;-2.04;87.2207;948.3136;;;;
2022/01/19 05:16:01;;;;;;;4.9;3.7;;;;;;;-2.17;87.22754;948.1746;;;;
2022/01/19 05:18:29;;;;;;;3.1;2.8;;;;;;;-2.39;88.35449;948.2932;;;;
2022/01/19 05:20:59;;;;;;;3.9;3.1;;;;;;;-2.51;89.30371;948.3066;;;;
2022/01/19 05:23:25;;;;;;;6.2;4.4;;;;;;;-2.51;89.39258;948.2863;;;;
2022/01/19 05:26:03;;;;;;;9.2;5.4;;;;;;;-2.5;89.47266;948.2865;;;;
2022/01/19 05:28:27;;;;;;;9.8;5.5;;;;;;;-2.49;89.4873;948.2174;;;;
2022/01/19 05:30:56;;;;;;;11.5;6.3;;;;;;;-2.47;89.36914;948.2332;;;;
2022/01/19 05:33:23;;;;;;;11;6.3;;;;;;;-2.26;88.47168;948.1608;;;;
2022/01/19 05:35:55;;;;;;;10;5.8;;;;;;;-2.24;88.00098;948.158;;;;
2022/01/19 05:38:19;;;;;;;11;6.1;;;;;;;-2.09;87.2998;948.2023;;;;
2022/01/19 05:40:51;;;;;;;8.8;6.2;;;;;;;-2.21;87.66309;948.1702;;;;
2022/01/19 05:43:17;;;;;;;10.3;6.7;;;;;;;-2.32;88.28125;948.0575;;;;
2022/01/19 05:45:42;;;;;;;10.5;6;;;;;;;-2.18;87.80176;948.163;;;;
2022/01/19 05:48:09;;;;;;;8.9;5.3;;;;;;;-2.13;86.89355;948.1124;;;;
2022/01/19 05:50:34;;;;;;;8;5.9;;;;;;;-2.2;87.09961;948.1072;;;;
2022/01/19 05:52:59;;;;;;;7.9;5.9;;;;;;;-2.07;86.92871;948.0856;;;;
2022/01/19 05:55:34;;;;;;;6.2;5.3;;;;;;;-2.02;86.23926;948.0133;;;;
2022/01/19 05:58:08;;;;;;;9.7;6;;;;;;;-2.12;86.42969;947.9436;;;;
2022/01/19 06:00:40;;;;;;;11.4;6.5;;;;;;;-2.19;86.625;948.0056;;;;
2022/01/19 06:03:16;;;;;;;10.8;6.9;;;;;;;-2.25;86.94434;947.9968;;;;
2022/01/19 06:05:49;;;;;;;7.8;5.1;;;;;;;-2.3;87.0332;947.9342;;;;
2022/01/19 06:08:41;;;;;;;6.9;5.5;;;;;;;-2.32;87.26172;947.9771;;;;
2022/01/19 06:13:50;;;;;;;9.3;6.3;;;;;;;-2.55;87.8457;947.9553;;;;
2022/01/19 06:15:51;;;;;;;4.7;3.7;;;;;;;-2.67;88.53906;947.9382;;;;
2022/01/19 06:18:23;;;;;;;6.9;3.6;;;;;;;-2.76;89.24121;947.9469;;;;
2022/01/19 06:20:54;;;;;;;5.8;4.2;;;;;;;-2.7;89.22168;947.8703;;;;
2022/01/19 06:23:23;;;;;;;8.8;4.6;;;;;;;-2.69;89.14355;947.8791;;;;
2022/01/19 06:25:48;;;;;;;6.7;4.9;;;;;;;-2.64;89.20215;947.7725;;;;
2022/01/19 06:28:15;;;;;;;6.5;4.8;;;;;;;-2.55;88.77637;947.7286;;;;
2022/01/19 06:30:40;;;;;;;11.4;7.2;;;;;;;-2.52;88.42773;947.7991;;;;
2022/01/19 06:33:07;;;;;;;11.4;7.2;;;;;;;-2.58;88.55957;947.7809;;;;
2022/01/19 06:35:33;;;;;;;10.7;7.1;;;;;;;-2.69;88.77832;947.7466;;;;
2022/01/19 06:38:01;;;;;;;19.4;10.7;;;;;;;-2.75;88.98828;947.7574;;;;
2022/01/19 06:40:27;;;;;;;11.8;6.9;;;;;;;-2.8;89.27734;947.6742;;;;
2022/01/19 06:42:55;;;;;;;10.6;6.2;;;;;;;-2.78;89.16895;947.7267;;;;
2022/01/19 06:45:20;;;;;;;9.9;7;;;;;;;-2.8;89.12305;947.6517;;;;
2022/01/19 06:47:47;;;;;;;12.3;8.8;;;;;;;-2.82;89.49316;947.6995;;;;
2022/01/19 06:50:23;;;;;;;15.4;10.2;;;;;;;-2.8;89.68555;947.6906;;;;
2022/01/19 06:52:39;;;;;;;14.9;10.1;;;;;;;-2.64;90.21973;947.7017;;;;
2022/01/19 06:55:04;;;;;;;12.7;9.6;;;;;;;-2.5;88.77637;947.6356;;;;
2022/01/19 06:57:32;;;;;;;11.2;8.7;;;;;;;-2.45;88.30957;947.6783;;;;
2022/01/19 06:59:57;;;;;;;7.2;5.4;;;;;;;-2.37;87.32129;947.6783;;;;
2022/01/19 07:02:24;;;;;;;9.2;5.5;;;;;;;-2.35;86.66895;947.6373;;;;
2022/01/19 07:04:50;;;;;;;7.6;5;;;;;;;-2.38;86.90723;947.6027;;;;
2022/01/19 07:07:18;;;;;;;8.8;4.6;;;;;;;-2.34;86.44043;947.5463;;;;
2022/01/19 07:09:43;;;;;;;7.4;5.2;;;;;;;-2.27;86.20801;947.5336;;;;
2022/01/19 07:12:10;;;;;;;9.5;7;;;;;;;-2.22;86.2627;947.5117;;;;
2022/01/19 07:14:35;;;;;;;10.6;7.2;;;;;;;-2.14;85.81445;947.4506;;;;
2022/01/19 07:17:00;;;;;;;12.5;7.2;;;;;;;-2.13;85.45215;947.3749;;;;
2022/01/19 07:19:30;;;;;;;9.9;6.7;;;;;;;-2.27;85.7666;947.4752;;;;
2022/01/19 07:22:01;;;;;;;8.9;6;;;;;;;-2.23;85.8623;947.4568;;;;
2022/01/19 07:24:30;;;;;;;7.2;4.8;;;;;;;-2.29;85.7627;947.4398;;;;
2022/01/19 07:26:56;;;;;;;6.8;4.9;;;;;;;-2.21;85.49121;947.4144;;;;
2022/01/19 07:29:26;;;;;;;5.9;4.3;;;;;;;-2.24;85.31738;947.3962;;;;
2022/01/19 07:31:51;;;;;;;7.1;4.2;;;;;;;-2.15;85.09375;947.4175;;;;
2022/01/19 07:34:18;;;;;;;5.3;4;;;;;;;-2.2;85.17188;947.325;;;;
2022/01/19 07:36:51;;;;;;;14.3;9.7;;;;;;;-2.17;85.31055;947.2534;;;;
2022/01/19 07:39:19;;;;;;;15.3;10.4;;;;;;;-2.13;85.04004;947.3231;;;;
2022/01/19 07:41:44;;;;;;;12.4;8.2;;;;;;;-1.84;85.30957;947.2947;;;;
2022/01/19 07:44:14;;;;;;;8.2;6.1;;;;;;;-1.22;82.60352;947.3117;;;;
2022/01/19 07:46:38;;;;;;;12.7;7;;;;;;;-0.47;79.16797;947.3105;;;;
2022/01/19 07:49:04;;;;;;;13.7;7.8;;;;;;;-0.07;76.54785;947.3183;;;;
2022/01/19 07:51:29;;;;;;;28;13.9;;;;;;;0.09;75.41992;947.2822;;;;
2022/01/19 07:53:56;;;;;;;27;15;;;;;;;0.27;74.34863;947.2413;;;;
2022/01/19 07:56:21;;;;;;;27.8;16.6;;;;;;;0.42;73.66016;947.2451;;;;
2022/01/19 07:58:50;;;;;;;20.8;13.6;;;;;;;0.65;72.99707;947.2108;;;;
2022/01/19 08:01:16;;;;;;;13;8.5;;;;;;;0.79;71.51563;947.2375;;;;
2022/01/19 08:03:42;;;;;;;13.9;8.9;;;;;;;0.88;71.50781;947.162;;;;
2022/01/19 08:06:07;;;;;;;11.8;8.3;;;;;;;1.2;69.84082;947.1258;;;;
2022/01/19 08:08:35;;;;;;;12.3;9;;;;;;;1.36;69.1416;947.0658;;;;
2022/01/19 08:10:59;;;;;;;12.7;8.4;;;;;;;1.55;69.24902;947.1024;;;;
2022/01/19 08:13:30;;;;;;;11.8;7.8;;;;;;;1.81;67.52637;946.9869;;;;
2022/01/19 08:16:00;;;;;;;10.6;7.7;;;;;;;2.58;65.72168;946.986;;;;
2022/01/19 08:18:31;;;;;;;11.7;8.5;;;;;;;3.97;61;946.954;;;;
2022/01/19 08:21:05;;;;;;;13;8.3;;;;;;;4.46;58.36914;946.8513;;;;
2022/01/19 08:23:34;;;;;;;12.9;8.3;;;;;;;4.02;58.65625;946.9464;;;;
2022/01/19 08:25:59;;;;;;;17.2;9.8;;;;;;;4.16;59.26074;946.9207;;;;
2022/01/19 08:28:25;;;;;;;12.3;8.5;;;;;;;5.08;56.72852;946.8756;;;;
2022/01/19 08:30:50;;;;;;;9.5;6.2;;;;;;;5.94;52.92285;946.8794;;;;
2022/01/19 08:33:17;;;;;;;6.4;4.7;;;;;;;5;55.79297;946.9089;;;;
2022/01/19 08:35:42;;;;;;;6.7;4.6;;;;;;;4.58;55.2998;946.9246;;;;
2022/01/19 08:38:09;;;;;;;6.9;5.6;;;;;;;4.15;57.49316;946.918;;;;
2022/01/19 08:40:36;;;;;;;9.5;6.1;;;;;;;4.28;57.30762;946.8794;;;;
2022/01/19 08:43:02;;;;;;;8.1;5.8;;;;;;;4.28;57.12891;946.8585;;;;
2022/01/19 08:45:27;;;;;;;6.9;4.8;;;;;;;3.84;58.15918;946.865;;;;
2022/01/19 08:47:54;;;;;;;8.3;5.7;;;;;;;5.23;55.40625;946.7634;;;;
2022/01/19 08:50:19;;;;;;;8.3;5.1;;;;;;;5.55;54.29492;946.7407;;;;
2022/01/19 08:52:46;;;;;;;7.6;5.7;;;;;;;6.35;51.65137;946.7495;;;;
2022/01/19 08:55:12;;;;;;;7.9;4.9;;;;;;;5.92;52.35547;946.7341;;;;
2022/01/19 08:57:37;;;;;;;9.1;5.5;;;;;;;4.17;57.2373;946.7291;;;;
2022/01/19 09:00:02;;;;;;;5.8;4.1;;;;;;;4.18;57.86914;946.7919;;;;
2022/01/19 09:02:30;;;;;;;4.6;3.4;;;;;;;4.02;58.12793;946.7226;;;;
2022/01/19 09:04:56;;;;;;;4.9;3.5;;;;;;;3.57;59.28027;946.6528;;;;
2022/01/19 09:07:22;;;;;;;6.2;4;;;;;;;1.93;64.4209;946.6941;;;;
2022/01/19 09:09:47;;;;;;;5.7;3.8;;;;;;;1.4;67.06836;946.6595;;;;
2022/01/19 09:12:14;;;;;;;5.2;3.9;;;;;;;1.18;68.9668;946.657;;;;
2022/01/19 09:14:39;;;;;;;4.7;3.9;;;;;;;1.19;69.60547;946.6373;;;;
2022/01/19 09:17:08;;;;;;;6.7;4.2;;;;;;;1.33;69.87305;946.6094;;;;
2022/01/19 09:19:34;;;;;;;5.2;3.7;;;;;;;1.47;69.875;946.5857;;;;
2022/01/19 09:22:02;;;;;;;4.3;3.3;;;;;;;1.47;68.95996;946.5725;;;;
2022/01/19 09:24:25;;;;;;;4;3.2;;;;;;;1.45;68.40723;946.4324;;;;
2022/01/19 09:26:51;;;;;;;3;2.7;;;;;;;1.62;67.71973;946.4411;;;;
2022/01/19 09:29:16;;;;;;;3.6;3.2;;;;;;;1.79;68.37305;946.457;;;;
2022/01/19 09:31:45;;;;;;;4.7;3.9;;;;;;;1.94;67.92773;946.4782;;;;
2022/01/19 09:34:14;;;;;;;6.5;4.5;;;;;;;1.99;66.98438;946.4637;;;;
2022/01/19 09:36:44;;;;;;;4.7;3.7;;;;;;;2.1;67.38184;946.4141;;;;
2022/01/19 09:39:01;;;;;;;4;2.7;;;;;;;2.17;65.24219;946.3367;;;;
2022/01/19 09:41:28;;;;;;;4.2;3.4;;;;;;;2.34;66.20898;946.3892;;;;
2022/01/19 09:43:52;;;;;;;5.9;4.1;;;;;;;2.53;66.10645;946.2739;;;;
2022/01/19 09:46:20;;;;;;;7;4.1;;;;;;;2.73;65.20605;946.2311;;;;
2022/01/19 09:48:45;;;;;;;5;3.8;;;;;;;2.9;63.2793;946.2166;;;;
2022/01/19 09:51:15;;;;;;;4.9;3;;;;;;;2.99;61.59961;946.1989;;;;
2022/01/19 09:53:44;;;;;;;4.4;3.1;;;;;;;3.16;62.43359;946.1216;;;;
2022/01/19 09:56:09;;;;;;;3;2.6;;;;;;;3.28;62.02441;946.0923;;;;
2022/01/19 09:58:35;;;;;;;3.1;2.4;;;;;;;3.35;58.94531;946.1012;;;;
2022/01/19 10:01:00;;;;;;;4.7;2.5;;;;;;;3.63;58.1084;945.9623;;;;
2022/01/19 10:03:25;;;;;;;7.2;2.7;;;;;;;3.63;57.87207;945.9638;;;;
2022/01/19 10:05:53;;;;;;;4.7;2.7;;;;;;;3.95;57.86035;945.9731;;;;
2022/01/19 10:08:18;;;;;;;27.3;4.5;;;;;;;4.09;57.47363;945.9341;;;;
2022/01/19 10:10:43;;;;;;;5;2.5;;;;;;;4.16;54.98633;945.867;;;;
2022/01/19 10:18:33;;;;;;;25.2;4.9;;;;;;;4.58;54.55566;945.7274;;;;
2022/01/19 10:20:54;;;;;;;15.2;4;;;;;;;4.66;55.36523;945.6582;;;;
2022/01/19 10:23:21;;;;;;;21.5;4;;;;;;;4.58;56.86523;945.5381;;;;
2022/01/19 10:25:46;;;;;;;16.8;3.9;;;;;;;4.56;56.19727;945.4872;;;;
2022/01/19 10:28:11;;;;;;;26;4.9;;;;;;;4.82;56.17676;945.3912;;;;
2022/01/19 10:30:40;;;;;;;27.3;5.4;;;;;;;4.94;55.19922;945.358;;;;
2022/01/19 10:33:05;;;;;;;24.5;4.3;;;;;;;5.02;55.18652;945.2322;;;;
2022/01/19 10:35:31;;;;;;;71.3;11.5;;;;;;;5.05;53.69238;945.2344;;;;
2022/01/19 10:37:55;;;;;;;15.9;3.2;;;;;;;5.22;52.51758;945.1301;;;;
2022/01/19 10:40:22;;;;;;;8.2;2.4;;;;;;;5.14;52.58594;945.0872;;;;
2022/01/19 10:42:46;;;;;;;16.4;3.4;;;;;;;5.19;52.2207;944.9922;;;;
2022/01/19 10:45:11;;;;;;;8.6;2.6;;;;;;;5.23;51.43555;944.9426;;;;
2022/01/19 10:47:39;;;;;;;30.1;5.4;;;;;;;5.52;51.99121;944.9207;;;;
2022/01/19 10:50:04;;;;;;;19.5;3.7;;;;;;;5.64;51.03418;944.8465;;;;
2022/01/19 10:52:31;;;;;;;5.2;2.1;;;;;;;5.73;50.08691;944.8098;;;;
2022/01/19 10:54:58;;;;;;;4.4;2;;;;;;;5.84;50.23438;944.7802;;;;
2022/01/19 10:57:24;;;;;;;7.8;2.7;;;;;;;6.01;49.2373;944.7269;;;;
2022/01/19 10:59:50;;;;;;;5.6;2.2;;;;;;;6.03;50.18848;944.7293;;;;
2022/01/19 11:02:14;;;;;;;3.3;1.8;;;;;;;6.08;49.53809;944.7388;;;;
2022/01/19 11:04:39;;;;;;;2.7;1.4;;;;;;;6.17;50.85938;944.7239;;;;
2022/01/19 11:07:06;;;;;;;2.8;1.5;;;;;;;6.24;51.63672;944.6714;;;;
2022/01/19 11:09:31;;;;;;;3.4;1.3;;;;;;;6.23;50.12207;944.6721;;;;
2022/01/19 11:11:58;;;;;;;1.6;1.3;;;;;;;6.28;50.7041;944.6262;;;;
2022/01/19 11:14:26;;;;;;;3.4;1.7;;;;;;;6.23;48.27832;944.5817;;;;
2022/01/19 11:16:55;;;;;;;1.9;1.1;;;;;;;6.28;49.76563;944.6161;;;;
2022/01/19 11:19:26;;;;;;;2.4;1.3;;;;;;;6.26;48.91602;944.4984;;;;
2022/01/19 11:21:50;;;;;;;2;1.3;;;;;;;6.44;47.72656;944.4495;;;;
2022/01/19 11:24:15;;;;;;;2;1.2;;;;;;;6.48;47.08496;944.3664;;;;
2022/01/19 11:26:40;;;;;;;2.3;1.3;;;;;;;6.5;47.23438;944.2996;;;;
2022/01/19 11:29:05;;;;;;;2.8;1.5;;;;;;;6.51;46.77148;944.2811;;;;
2022/01/19 11:31:34;;;;;;;3;1.3;;;;;;;6.6;47.78809;944.242;;;;
2022/01/19 11:33:59;;;;;;;1.7;1.1;;;;;;;6.59;47.74219;944.2197;;;;
2022/01/19 11:36:25;;;;;;;1.8;1.2;;;;;;;6.65;49.84375;944.1453;;;;
2022/01/19 11:38:49;;;;;;;3.8;1.3;;;;;;;6.73;48.83301;944.0648;;;;
2022/01/19 11:41:15;;;;;;;2.3;1.3;;;;;;;6.79;50.71875;943.9817;;;;
2022/01/19 11:43:40;;;;;;;3.3;1.6;;;;;;;6.87;50.03711;944.038;;;;
2022/01/19 11:46:05;;;;;;;3.3;1.3;;;;;;;6.67;48.41797;944.0025;;;;
2022/01/19 11:48:32;;;;;;;2.5;1.4;;;;;;;6.78;49.16699;943.9224;;;;
2022/01/19 11:51:00;;;;;;;2.1;1.3;;;;;;;6.84;50.75879;943.8995;;;;
2022/01/19 11:53:24;;;;;;;3.2;1.5;;;;;;;6.99;48.29688;943.8256;;;;
2022/01/19 11:55:49;;;;;;;2.5;1.6;;;;;;;7.19;50.5625;943.8474;;;;
2022/01/19 11:58:15;;;;;;;3.8;2;;;;;;;7.44;49.77539;943.8;;;;
2022/01/19 12:00:42;;;;;;;6.4;2.4;;;;;;;7.82;49.28613;943.7491;;;;
2022/01/19 12:03:10;;;;;;;6.7;2.7;;;;;;;8.2;48.5918;943.7567;;;;
2022/01/19 12:06:12;;;;;;;8.8;3.3;;;;;;;8.76;47.47266;943.7202;;;;
2022/01/19 12:08:38;;;;;;;6.5;2.8;;;;;;;8.95;45.69531;943.7297;;;;
2022/01/19 12:11:07;;;;;;;8.3;3.2;;;;;;;9.48;45.30859;943.6619;;;;
2022/01/19 12:13:44;;;;;;;5.3;2.5;;;;;;;9.5;45.77734;943.6146;;;;
2022/01/19 12:16:08;;;;;;;4.4;2.4;;;;;;;9.78;44.63281;943.5778;;;;
2022/01/19 12:18:29;;;;;;;6.8;2.3;;;;;;;10.19;42.48535;943.5413;;;;
2022/01/19 12:20:59;;;;;;;5.8;2.1;;;;;;;10.76;42.38086;943.4525;;;;
2022/01/19 12:23:24;;;;;;;4.8;2.6;;;;;;;10.98;41.25977;943.4197;;;;
2022/01/19 12:25:49;;;;;;;3.9;2.3;;;;;;;11.83;40.15039;943.4083;;;;
2022/01/19 12:28:17;;;;;;;5.1;2.6;;;;;;;11.73;40.12988;943.3376;;;;
2022/01/19 12:30:43;;;;;;;3.5;1.4;;;;;;;11.53;36.92871;943.3307;;;;
2022/01/19 12:33:08;;;;;;;3.5;1.5;;;;;;;11.38;37.49902;943.3044;;;;
2022/01/19 12:35:35;;;;;;;3.2;1.4;;;;;;;11.75;38.87207;943.3356;;;;
2022/01/19 12:38:00;;;;;;;3.2;1.5;;;;;;;12.54;36.45313;943.2709;;;;
2022/01/19 12:40:32;;;;;;;1.8;1.1;;;;;;;12.99;34.71094;943.2564;;;;
2022/01/19 12:42:56;;;;;;;2.3;1.1;;;;;;;13.77;32.48438;943.2294;;;;
2022/01/19 12:45:22;;;;;;;0.8;0.7;;;;;;;14.43;31.71582;943.195;;;;
2022/01/19 12:47:47;;;;;;;1.7;1.1;;;;;;;13.65;32.7168;943.1328;;;;
2022/01/19 12:50:15;;;;;;;3.3;1.2;;;;;;;14.17;31.27051;943.1324;;;;
2022/01/19 12:52:41;;;;;;;1.2;1;;;;;;;13.74;32.125;943.1292;;;;
2022/01/19 12:55:10;;;;;;;1.8;1;;;;;;;14.45;31.24512;943.0492;;;;
2022/01/19 12:57:35;;;;;;;2.6;1.2;;;;;;;14.86;30.37402;942.9846;;;;
2022/01/19 13:00:02;;;;;;;2.3;1.1;;;;;;;14.4;31.51758;942.9196;;;;
2022/01/19 13:02:27;;;;;;;2.2;1.2;;;;;;;14.07;31.59668;942.8438;;;;
2022/01/19 13:04:54;;;;;;;3.5;1.4;;;;;;;14.38;31.93066;942.8873;;;;
2022/01/19 13:07:19;;;;;;;1.9;1.3;;;;;;;14.57;31.48438;942.825;;;;
2022/01/19 13:09:44;;;;;;;6.9;1.8;;;;;;;13.51;32.95898;942.8156;;;;
2022/01/19 13:12:15;;;;;;;3.6;1.6;;;;;;;13.67;33.55762;942.7687;;;;
2022/01/19 13:14:38;;;;;;;2.7;1.4;;;;;;;14.42;32.92383;942.7556;;;;
2022/01/19 13:17:03;;;;;;;3.1;1.6;;;;;;;14.81;32.72363;942.682;;;;
2022/01/19 13:19:29;;;;;;;3.1;1.5;;;;;;;15.09;32.09863;942.7138;;;;
2022/01/19 13:21:54;;;;;;;4.3;1.5;;;;;;;15.5;31.87402;942.6713;;;;
2022/01/19 13:24:26;;;;;;;2.2;1.7;;;;;;;13.96;34.69629;942.6317;;;;
2022/01/19 13:26:47;;;;;;;4.4;2.1;;;;;;;13.55;34.99707;942.7126;;;;
2022/01/19 13:29:12;;;;;;;6.6;3.4;;;;;;;13.45;35.89746;942.6866;;;;
2022/01/19 13:31:40;;;;;;;3.3;2.2;;;;;;;13.26;35.7207;942.6755;;;;
2022/01/19 13:34:06;;;;;;;5.3;2.2;;;;;;;13.51;35.5459;942.5477;;;;
2022/01/19 13:36:31;;;;;;;4.6;2.4;;;;;;;14.48;34.81836;942.655;;;;
2022/01/19 13:38:56;;;;;;;4.6;2.9;;;;;;;14.31;33.86035;942.6589;;;;
2022/01/19 13:41:21;;;;;;;4.2;2.4;;;;;;;14.38;34.23438;942.6775;;;;
2022/01/19 13:43:47;;;;;;;5;2.9;;;;;;;14.25;33.86719;942.6964;;;;
2022/01/19 13:46:15;;;;;;;2.8;1.9;;;;;;;14.35;34.70508;942.6581;;;;
2022/01/19 13:48:37;;;;;;;3.4;2.1;;;;;;;13.36;36.70605;942.6522;;;;
2022/01/19 13:51:06;;;;;;;4.6;2.2;;;;;;;13.32;36.42578;942.6791;;;;
2022/01/19 13:53:32;;;;;;;3.9;2.1;;;;;;;13.02;37.73438;942.7014;;;;
2022/01/19 13:56:02;;;;;;;7.5;2.3;;;;;;;13.22;37.31445;942.6993;;;;
2022/01/19 13:58:27;;;;;;;4.3;2.6;;;;;;;12.48;38.71875;942.692;;;;
2022/01/19 14:00:55;;;;;;;7.6;2.8;;;;;;;12.28;39.67578;942.7227;;;;
2022/01/19 14:03:23;;;;;;;6.4;2.7;;;;;;;13.63;37.15527;942.5758;;;;
2022/01/19 14:05:48;;;;;;;6.2;2.4;;;;;;;13.76;36.20996;942.6426;;;;
2022/01/19 14:08:13;;;;;;;5.4;2.2;;;;;;;13.32;36.19727;942.6647;;;;
2022/01/19 14:10:38;;;;;;;4.2;2;;;;;;;13.5;36.78613;942.6036;;;;
2022/01/19 14:13:05;;;;;;;3.7;2.1;;;;;;;17.03;31.31348;942.5323;;;;
2022/01/19 14:15:40;;;;;;;4;2.1;;;;;;;19.06;28.20996;942.4025;;;;
2022/01/19 14:18:04;;;;;;;3.8;2.1;;;;;;;18.06;29.01758;942.379;;;;
2022/01/19 14:20:29;;;;;;;6.4;2.3;;;;;;;19.19;27.97363;942.2743;;;;
2022/01/19 14:22:56;;;;;;;4.4;2.3;;;;;;;19.93;26.8418;942.27;;;;
2022/01/19 14:25:20;;;;;;;2.9;2.2;;;;;;;20.27;26.2793;942.1971;;;;
2022/01/19 14:27:51;;;;;;;3.9;2.1;;;;;;;21.5;24.64258;942.1846;;;;
2022/01/19 14:30:24;;;;;;;5;2.2;;;;;;;21.94;23.80078;942.0644;;;;
2022/01/19 14:32:46;;;;;;;5.4;2.3;;;;;;;21.87;23.92578;942.1483;;;;
2022/01/19 14:35:11;;;;;;;5.3;2;;;;;;;22.23;23.53516;942.1121;;;;
2022/01/19 14:37:38;;;;;;;2.9;1.8;;;;;;;22.43;22.92285;942.1066;;;;
2022/01/19 14:40:03;;;;;;;6.3;2.1;;;;;;;21.85;24.01855;942.0854;;;;
2022/01/19 14:42:29;;;;;;;22;4.8;;;;;;;20.93;25.1377;942.0828;;;;
2022/01/19 14:45:01;;;;;;;18.8;3.9;;;;;;;19.72;26.375;942.121;;;;
2022/01/19 14:47:27;;;;;;;13.7;3.9;;;;;;;17.11;29.20996;942.1744;;;;
2022/01/19 14:49:43;;;;;;;10.1;4.9;;;;;;;17.1;29.77734;942.1761;;;;
2022/01/19 14:52:10;;;;;;;14.4;7.5;;;;;;;15.83;32.20996;942.1275;;;;
2022/01/19 14:54:38;;;;;;;16.8;5.8;;;;;;;14.31;34.00977;942.0637;;;;
2022/01/19 14:57:04;;;;;;;16.4;6.5;;;;;;;11.99;37.68945;942.1339;;;;
2022/01/19 14:59:29;;;;;;;20.7;6.8;;;;;;;11.9;38.13965;942.1219;;;;
2022/01/19 15:01:56;;;;;;;19.6;6.7;;;;;;;11.7;38.63867;942.108;;;;
2022/01/19 15:04:22;;;;;;;19.7;7.3;;;;;;;11.28;40.45313;942.0689;;;;
2022/01/19 15:06:48;;;;;;;12.9;6.2;;;;;;;10.06;43.9209;942.1019;;;;
2022/01/19 15:09:16;;;;;;;11.1;5.7;;;;;;;9.07;45.85645;942.1553;;;;
2022/01/19 15:11:40;;;;;;;11.9;5.2;;;;;;;8.92;46.35352;942.1661;;;;
2022/01/19 15:14:09;;;;;;;9.3;5.2;;;;;;;8.38;48.11328;942.1633;;;;
2022/01/19 15:16:33;;;;;;;8.3;4.6;;;;;;;7.94;49.3457;942.1906;;;;
2022/01/19 15:19:01;;;;;;;7.6;4.5;;;;;;;7.6;50.56543;942.15;;;;
2022/01/19 15:21:26;;;;;;;10.1;5.6;;;;;;;7.32;50.92969;942.1089;;;;
2022/01/19 15:23:53;;;;;;;16;8.1;;;;;;;7.1;51.00488;942.1635;;;;
2022/01/19 15:26:19;;;;;;;15;7.1;;;;;;;6.9;52.64551;942.1194;;;;
2022/01/19 15:28:45;;;;;;;21.5;8.2;;;;;;;6.76;52.72949;942.1736;;;;
2022/01/19 15:31:11;;;;;;;23.6;8.2;;;;;;;6.68;52.65234;942.1458;;;;
2022/01/19 15:33:38;;;;;;;36.5;9.5;;;;;;;6.35;53.10938;942.1163;;;;
2022/01/19 15:36:04;;;;;;;21.5;7.7;;;;;;;6.26;52.57715;942.1306;;;;
2022/01/19 15:38:30;;;;;;;27.6;7.6;;;;;;;6.25;52.99512;942.125;;;;
2022/01/19 15:40:55;;;;;;;35.2;9.2;;;;;;;6.14;54.26953;942.1873;;;;
2022/01/19 15:43:23;;;;;;;42.3;9.4;;;;;;;6.05;54.57422;942.1401;;;;
2022/01/19 15:45:49;;;;;;;29;9;;;;;;;6;54.29785;942.1476;;;;
2022/01/19 15:48:16;;;;;;;40.9;11.8;;;;;;;5.93;54.95605;942.1836;;;;
2022/01/19 15:50:40;;;;;;;37.4;11.1;;;;;;;5.71;56.93555;942.2733;;;;
2022/01/19 15:53:07;;;;;;;19.9;9.2;;;;;;;5.61;58.12988;942.277;;;;
2022/01/19 15:55:32;;;;;;;67.2;42.2;;;;;;;5.45;58.98926;942.1908;;;;
2022/01/19 15:57:58;;;;;;;21.5;10;;;;;;;5.12;60.2168;942.1965;;;;
2022/01/19 16:00:25;;;;;;;23.5;11.1;;;;;;;5.13;60.37695;942.13;;;;
2022/01/19 16:02:52;;;;;;;29.3;9.3;;;;;;;5.06;60.28711;942.2971;;;;
2022/01/19 16:05:17;;;;;;;27.1;11.2;;;;;;;4.93;59.94238;942.2463;;;;
2022/01/19 16:07:44;;;;;;;28.9;11.6;;;;;;;4.81;59.83398;942.2859;;;;
2022/01/19 16:10:09;;;;;;;40.3;13.8;;;;;;;4.5;60.0293;942.2612;;;;
2022/01/19 16:12:36;;;;;;;30.3;11.7;;;;;;;4.52;60.29102;942.2958;;;;
2022/01/19 16:15:02;;;;;;;24.2;11.4;;;;;;;4.51;59.6123;942.2724;;;;
2022/01/19 16:17:30;;;;;;;28.7;14.1;;;;;;;4.55;61.09375;942.2812;;;;
2022/01/19 16:19:55;;;;;;;30;14.7;;;;;;;4.45;61.7666;942.2394;;;;
2022/01/19 16:27:13;;;;;;;28.7;14.4;;;;;;;4.24;61.87109;942.343;;;;
2022/01/19 16:29:41;;;;;;;28;12.7;;;;;;;4.17;61.82715;942.2896;;;;
2022/01/19 16:32:06;;;;;;;22.9;12.2;;;;;;;4.15;62.21777;942.2949;;;;
2022/01/19 16:34:31;;;;;;;27.3;12.5;;;;;;;4.08;62.25293;942.3457;;;;
2022/01/19 16:36:59;;;;;;;35.7;16.6;;;;;;;3.91;62.73438;942.4174;;;;
2022/01/19 16:39:24;;;;;;;33.7;17.9;;;;;;;3.84;63.07129;942.405;;;;